createdAt,value
2018-12-11T00:01:57.298Z,2.40
2018-12-11T00:04:24.758Z,0.77
2018-12-11T00:06:52.213Z,1.80
2018-12-11T00:09:19.747Z,2.10
2018-12-11T00:11:47.186Z,1.97
2018-12-11T00:14:14.650Z,1.20
2018-12-11T00:16:42.149Z,2.10
2018-12-11T00:19:09.625Z,2.20
2018-12-11T00:21:37.080Z,2.17
2018-12-11T00:24:04.589Z,2.80
2018-12-11T00:26:32.054Z,2.37
2018-12-11T00:28:59.519Z,2.33
2018-12-11T00:31:26.961Z,2.80
2018-12-11T00:33:54.432Z,2.70
2018-12-11T00:36:21.893Z,3.50
2018-12-11T00:38:49.342Z,4.30
2018-12-11T00:41:16.825Z,3.83
2018-12-11T00:43:44.264Z,4.20
2018-12-11T00:46:11.776Z,4.57
2018-12-11T00:48:39.243Z,4.07
2018-12-11T00:51:06.687Z,3.90
2018-12-11T00:53:34.150Z,5.00
2018-12-11T00:56:01.589Z,3.53
2018-12-11T00:58:29.066Z,1.83
2018-12-11T01:00:56.515Z,3.00
2018-12-11T01:03:23.985Z,3.83
2018-12-11T01:05:51.462Z,3.60
2018-12-11T01:08:18.933Z,4.20
2018-12-11T01:10:46.373Z,2.73
2018-12-11T01:13:13.841Z,2.80
2018-12-11T01:15:41.310Z,2.20
2018-12-11T01:18:08.761Z,2.17
2018-12-11T01:20:36.229Z,2.10
2018-12-11T01:23:03.746Z,2.60
2018-12-11T01:25:31.252Z,1.67
2018-12-11T01:27:58.723Z,1.90
2018-12-11T01:30:26.176Z,1.60
2018-12-11T01:32:53.656Z,2.33
2018-12-11T01:35:21.297Z,2.03
2018-12-11T01:37:48.742Z,2.93
2018-12-11T01:40:16.212Z,1.80
2018-12-11T01:42:43.682Z,2.20
2018-12-11T01:45:11.133Z,1.40
2018-12-11T01:47:38.607Z,2.00
2018-12-11T01:50:06.191Z,1.87
2018-12-11T01:52:33.642Z,1.87
2018-12-11T01:55:01.081Z,2.07
2018-12-11T01:57:28.540Z,2.40
2018-12-11T01:59:56.025Z,2.70
2018-12-11T02:02:23.475Z,1.93
2018-12-11T02:04:51.048Z,1.60
2018-12-11T02:07:18.566Z,1.67
2018-12-11T02:09:46.009Z,1.63
2018-12-11T02:12:13.490Z,2.73
2018-12-11T02:14:40.951Z,1.53
2018-12-11T02:17:08.406Z,1.63
2018-12-11T02:19:35.921Z,1.70
2018-12-11T02:22:03.415Z,1.70
2018-12-11T02:24:30.887Z,1.77
2018-12-11T02:26:58.330Z,2.17
2018-12-11T02:29:25.817Z,1.73
2018-12-11T02:31:53.276Z,2.03
2018-12-11T02:34:20.783Z,4.47
2018-12-11T02:36:48.248Z,2.47
2018-12-11T02:39:15.704Z,2.20
2018-12-11T02:41:43.220Z,2.07
2018-12-11T02:44:10.772Z,1.77
2018-12-11T02:46:38.249Z,1.93
2018-12-11T02:49:05.718Z,2.33
2018-12-11T02:51:33.160Z,2.10
2018-12-11T02:54:00.641Z,2.50
2018-12-11T02:56:28.094Z,1.67
2018-12-11T02:58:55.551Z,2.13
2018-12-11T03:01:23.021Z,2.10
2018-12-11T03:03:50.604Z,2.57
2018-12-11T03:06:18.045Z,2.40
2018-12-11T03:08:45.503Z,2.17
2018-12-11T03:11:12.983Z,3.00
2018-12-11T03:13:40.514Z,2.73
2018-12-11T03:16:07.985Z,1.97
2018-12-11T03:18:35.427Z,1.23
2018-12-11T03:21:02.910Z,2.10
2018-12-11T03:23:30.368Z,2.23
2018-12-11T03:25:57.989Z,2.30
2018-12-11T03:28:25.443Z,1.60
2018-12-11T03:30:53.050Z,1.43
2018-12-11T03:33:20.522Z,2.07
2018-12-11T03:35:48.070Z,1.40
2018-12-11T03:38:15.530Z,1.30
2018-12-11T03:40:43.103Z,1.30
2018-12-11T03:43:10.547Z,2.00
2018-12-11T03:45:38.029Z,1.87
2018-12-11T03:48:05.481Z,1.53
2018-12-11T03:50:33.174Z,1.60
2018-12-11T03:53:00.651Z,1.77
2018-12-11T03:55:28.231Z,1.83
2018-12-11T03:57:55.687Z,1.60
2018-12-11T04:00:23.208Z,1.83
2018-12-11T04:02:50.647Z,1.47
2018-12-11T04:05:18.118Z,1.30
2018-12-11T04:07:45.565Z,1.60
2018-12-11T04:10:13.034Z,1.97
2018-12-11T04:12:40.500Z,2.40
2018-12-11T04:15:08.047Z,2.50
2018-12-11T04:17:35.508Z,1.37
2018-12-11T04:20:04.983Z,1.60
2018-12-11T04:22:32.447Z,2.03
2018-12-11T04:24:59.912Z,1.87
2018-12-11T04:27:27.422Z,1.90
2018-12-11T04:29:54.866Z,1.80
2018-12-11T04:32:22.398Z,1.63
2018-12-11T04:34:49.999Z,2.03
2018-12-11T04:37:17.473Z,2.47
2018-12-11T04:39:44.932Z,2.60
2018-12-11T04:42:12.386Z,2.93
2018-12-11T04:44:39.854Z,2.30
2018-12-11T04:47:07.318Z,2.60
2018-12-11T04:49:34.810Z,3.50
2018-12-11T04:52:02.263Z,4.37
2018-12-11T04:54:29.711Z,3.13
2018-12-11T04:56:57.179Z,2.57
2018-12-11T04:59:24.632Z,2.70
2018-12-11T05:01:52.099Z,1.90
2018-12-11T05:04:19.550Z,2.07
2018-12-11T05:06:47.076Z,2.37
2018-12-11T05:09:15.433Z,2.30
2018-12-11T05:11:42.883Z,2.57
2018-12-11T05:14:10.374Z,2.50
2018-12-11T05:16:37.847Z,2.97
2018-12-11T05:19:05.297Z,2.43
2018-12-11T05:21:32.965Z,2.50
2018-12-11T05:24:00.453Z,2.27
2018-12-11T05:26:27.925Z,2.17
2018-12-11T05:28:55.381Z,2.07
2018-12-11T05:31:22.830Z,2.53
2018-12-11T05:33:50.303Z,1.67
2018-12-11T05:36:17.745Z,1.13
2018-12-11T05:38:45.190Z,2.80
2018-12-11T05:41:12.666Z,2.93
2018-12-11T05:43:40.134Z,2.77
2018-12-11T05:46:07.602Z,2.50
2018-12-11T05:48:35.045Z,2.43
2018-12-11T05:51:02.523Z,2.60
2018-12-11T05:53:30.606Z,2.97
2018-12-11T05:55:58.083Z,2.30
2018-12-11T05:58:25.593Z,2.50
2018-12-11T06:00:53.039Z,2.20
2018-12-11T06:03:20.522Z,2.80
2018-12-11T06:05:47.993Z,3.63
2018-12-11T06:08:15.719Z,2.63
2018-12-11T06:10:43.154Z,2.87
2018-12-11T06:13:10.604Z,3.93
2018-12-11T06:15:38.114Z,1.70
2018-12-11T06:18:05.558Z,1.93
2018-12-11T06:20:34.487Z,0.70
2018-12-11T06:23:02.138Z,2.10
2018-12-11T06:25:29.708Z,1.40
2018-12-11T06:27:57.150Z,1.07
2018-12-11T06:30:24.637Z,1.57
2018-12-11T06:32:52.078Z,1.00
2018-12-11T06:35:19.533Z,1.40
2018-12-11T06:37:47.009Z,1.07
2018-12-11T06:40:14.563Z,1.40
2018-12-11T06:42:42.023Z,1.07
2018-12-11T06:45:09.474Z,1.50
2018-12-11T06:47:36.939Z,3.50
2018-12-11T06:50:06.305Z,1.43
2018-12-11T06:52:33.802Z,1.30
2018-12-11T06:55:01.237Z,1.73
2018-12-11T06:57:28.726Z,1.33
2018-12-11T06:59:56.197Z,1.30
2018-12-11T07:02:23.654Z,1.07
2018-12-11T07:04:51.125Z,1.43
2018-12-11T07:07:18.588Z,1.10
2018-12-11T07:09:46.054Z,1.20
2018-12-11T07:12:13.513Z,1.60
2018-12-11T07:14:40.977Z,1.40
2018-12-11T07:17:08.442Z,1.73
2018-12-11T07:19:35.913Z,0.60
2018-12-11T07:22:03.438Z,1.67
2018-12-11T07:24:30.978Z,1.20
2018-12-11T07:26:58.421Z,1.23
2018-12-11T07:29:25.887Z,1.37
2018-12-11T07:31:53.354Z,1.20
2018-12-11T07:34:20.844Z,1.10
2018-12-11T07:36:48.329Z,1.00
2018-12-11T07:39:15.778Z,0.90
2018-12-11T07:41:43.298Z,1.27
2018-12-11T07:44:10.740Z,1.13
2018-12-11T07:46:38.219Z,1.07
2018-12-11T07:49:05.731Z,1.27
2018-12-11T07:51:33.323Z,2.33
2018-12-11T07:54:00.873Z,1.77
2018-12-11T07:56:28.366Z,1.47
2018-12-11T07:58:55.814Z,1.83
2018-12-11T08:01:23.364Z,1.07
2018-12-11T08:03:50.825Z,1.03
2018-12-11T08:06:18.275Z,1.97
2018-12-11T08:08:45.745Z,1.57
2018-12-11T08:11:13.192Z,1.73
2018-12-11T08:13:40.657Z,1.00
2018-12-11T08:16:08.132Z,1.20
2018-12-11T08:18:35.658Z,1.60
2018-12-11T08:21:03.147Z,1.57
2018-12-11T08:23:30.613Z,1.23
2018-12-11T08:25:58.067Z,0.83
2018-12-11T08:28:25.534Z,0.50
2018-12-11T08:30:53.014Z,1.40
2018-12-11T08:33:20.480Z,1.10
2018-12-11T08:35:47.945Z,1.13
2018-12-11T08:38:15.393Z,1.63
2018-12-11T08:40:42.861Z,1.60
2018-12-11T08:43:10.299Z,1.57
2018-12-11T08:45:37.778Z,1.73
2018-12-11T08:48:05.263Z,2.07
2018-12-11T08:50:32.719Z,1.20
2018-12-11T08:53:00.166Z,1.50
2018-12-11T08:55:27.634Z,2.13
2018-12-11T08:57:55.113Z,1.70
2018-12-11T09:00:22.591Z,1.63
2018-12-11T09:02:50.022Z,2.40
2018-12-11T09:05:17.793Z,1.70
2018-12-11T09:07:45.240Z,1.60
2018-12-11T09:10:12.855Z,1.40
2018-12-11T09:12:40.318Z,1.50
2018-12-11T09:15:07.890Z,1.93
2018-12-11T09:17:35.463Z,2.80
2018-12-11T09:20:03.117Z,1.90
2018-12-11T09:22:31.005Z,1.40
2018-12-11T09:24:58.473Z,1.70
2018-12-11T09:27:25.942Z,1.47
2018-12-11T09:29:53.390Z,1.97
2018-12-11T09:32:20.860Z,1.37
2018-12-11T09:34:48.347Z,1.20
2018-12-11T09:37:15.817Z,1.77
2018-12-11T09:39:43.289Z,1.30
2018-12-11T09:42:10.823Z,2.47
2018-12-11T09:44:38.334Z,1.63
2018-12-11T09:47:05.770Z,1.70
2018-12-11T09:49:33.233Z,2.87
2018-12-11T09:52:00.751Z,2.60
2018-12-11T09:54:28.274Z,2.27
2018-12-11T09:56:55.752Z,2.13
2018-12-11T09:59:23.693Z,2.27
2018-12-11T10:01:51.234Z,2.23
2018-12-11T10:04:18.756Z,1.63
2018-12-11T10:06:46.229Z,2.37
2018-12-11T10:09:13.715Z,1.70
2018-12-11T10:11:41.161Z,1.87
2018-12-11T10:14:08.655Z,1.70
2018-12-11T10:16:36.093Z,1.70
2018-12-11T10:19:03.612Z,1.80
2018-12-11T10:21:31.064Z,1.83
2018-12-11T10:23:58.595Z,2.50
2018-12-11T10:26:26.055Z,2.33
2018-12-11T10:28:53.562Z,2.43
2018-12-11T10:31:21.098Z,2.53
2018-12-11T10:33:48.597Z,1.57
2018-12-11T10:36:16.114Z,2.17
2018-12-11T10:38:43.641Z,2.20
2018-12-11T10:41:11.099Z,2.17
2018-12-11T10:43:38.578Z,2.13
2018-12-11T10:46:06.022Z,2.10
2018-12-11T10:48:33.479Z,2.37
2018-12-11T10:51:00.986Z,1.53
2018-12-11T10:53:28.435Z,2.00
2018-12-11T10:55:55.918Z,1.87
2018-12-11T10:58:23.458Z,1.80
2018-12-11T11:00:56.653Z,1.63
2018-12-11T11:03:24.141Z,1.90
2018-12-11T11:05:51.606Z,2.10
2018-12-11T11:08:19.079Z,3.83
2018-12-11T11:10:46.533Z,2.27
2018-12-11T11:13:14.013Z,1.93
2018-12-11T11:15:41.564Z,1.40
2018-12-11T11:18:09.034Z,1.77
2018-12-11T11:20:36.476Z,1.60
2018-12-11T11:23:04.040Z,2.30
2018-12-11T11:25:31.554Z,1.60
2018-12-11T11:27:59.001Z,2.13
2018-12-11T11:30:26.475Z,1.20
2018-12-11T11:32:53.912Z,1.77
2018-12-11T11:35:21.412Z,1.93
2018-12-11T11:37:48.866Z,2.03
2018-12-11T11:40:16.382Z,1.90
2018-12-11T11:42:44.174Z,1.80
2018-12-11T11:45:11.773Z,2.27
2018-12-11T11:47:39.234Z,1.50
2018-12-11T11:50:09.070Z,1.20
2018-12-11T11:52:36.517Z,1.20
2018-12-11T11:55:04.565Z,1.70
2018-12-11T11:57:32.060Z,1.50
2018-12-11T11:59:59.509Z,2.70
2018-12-11T12:02:33.238Z,1.80
2018-12-11T12:04:57.394Z,1.50
2018-12-11T12:07:24.958Z,1.77
2018-12-11T12:09:52.403Z,1.17
2018-12-11T12:12:19.914Z,1.33
2018-12-11T12:14:49.171Z,1.57
2018-12-11T12:17:16.741Z,1.60
2018-12-11T12:19:44.190Z,2.50
2018-12-11T12:22:11.689Z,2.30
2018-12-11T12:24:39.178Z,1.90
2018-12-11T12:27:06.663Z,1.70
2018-12-11T12:29:34.130Z,1.63
2018-12-11T12:32:01.574Z,1.50
2018-12-11T12:34:29.045Z,1.70
2018-12-11T12:36:56.494Z,2.00
2018-12-11T12:39:23.960Z,1.67
2018-12-11T12:41:51.409Z,2.00
2018-12-11T12:44:18.916Z,1.20
2018-12-11T12:46:46.356Z,2.07
2018-12-11T12:49:13.800Z,1.53
2018-12-11T12:51:41.295Z,2.53
2018-12-11T12:54:08.862Z,1.27
2018-12-11T12:56:36.323Z,2.20
2018-12-11T12:59:03.768Z,2.40
2018-12-11T13:01:31.249Z,1.50
2018-12-11T13:03:58.756Z,1.43
2018-12-11T13:06:26.568Z,1.90
2018-12-11T13:08:54.982Z,2.13
2018-12-11T13:11:22.579Z,1.70
2018-12-11T13:13:50.013Z,1.23
2018-12-11T13:16:17.462Z,1.97
2018-12-11T13:18:44.931Z,1.67
2018-12-11T13:21:12.397Z,1.80
2018-12-11T13:23:39.847Z,1.73
2018-12-11T13:26:07.314Z,1.87
2018-12-11T13:28:34.755Z,1.30
2018-12-11T13:31:02.239Z,2.30
2018-12-11T13:33:29.683Z,1.63
2018-12-11T13:35:57.122Z,1.80
2018-12-11T13:38:24.604Z,2.27
2018-12-11T13:40:52.398Z,1.40
2018-12-11T13:43:19.866Z,1.60
2018-12-11T13:45:47.338Z,2.10
2018-12-11T13:48:14.924Z,2.03
2018-12-11T13:50:42.418Z,3.87
2018-12-11T13:53:09.884Z,3.23
2018-12-11T13:55:37.334Z,2.23
2018-12-11T13:58:04.801Z,2.00
2018-12-11T14:00:32.246Z,1.70
2018-12-11T14:02:59.714Z,2.90
2018-12-11T14:05:27.181Z,1.73
2018-12-11T14:07:54.745Z,1.30
2018-12-11T14:10:22.243Z,1.93
2018-12-11T14:12:49.701Z,1.73
2018-12-11T14:15:17.303Z,1.47
2018-12-11T14:17:44.763Z,1.70
2018-12-11T14:20:12.274Z,1.30
2018-12-11T14:22:39.722Z,2.90
2018-12-11T14:25:07.385Z,2.13
2018-12-11T14:27:34.870Z,1.67
2018-12-11T14:30:02.439Z,1.80
2018-12-11T14:32:30.015Z,2.20
2018-12-11T14:34:57.471Z,2.10
2018-12-11T14:37:24.958Z,2.80
2018-12-11T14:39:52.430Z,2.17
2018-12-11T14:42:19.898Z,1.97
2018-12-11T14:44:47.353Z,2.50
2018-12-11T14:47:14.837Z,2.20
2018-12-11T14:49:42.295Z,2.27
2018-12-11T14:52:09.766Z,2.70
2018-12-11T14:54:37.259Z,2.57
2018-12-11T14:57:04.715Z,1.70
2018-12-11T14:59:32.291Z,1.63
2018-12-11T15:01:59.733Z,1.87
2018-12-11T15:04:27.205Z,1.40
2018-12-11T15:06:54.670Z,1.20
2018-12-11T15:09:27.854Z,1.37
2018-12-11T15:11:55.322Z,1.43
2018-12-11T15:14:22.765Z,1.53
2018-12-11T15:16:50.215Z,1.80
2018-12-11T15:19:17.686Z,3.03
2018-12-11T15:21:45.159Z,1.73
2018-12-11T15:24:12.617Z,2.50
2018-12-11T15:26:40.086Z,1.60
2018-12-11T15:29:07.529Z,1.93
2018-12-11T15:31:34.999Z,1.67
2018-12-11T15:34:02.467Z,2.23
2018-12-11T15:36:29.938Z,2.07
2018-12-11T15:38:57.374Z,3.43
2018-12-11T15:41:24.849Z,1.80
2018-12-11T15:43:52.306Z,2.00
2018-12-11T15:46:20.585Z,2.80
2018-12-11T15:48:48.118Z,2.60
2018-12-11T15:51:15.560Z,2.03
2018-12-11T15:53:43.033Z,1.93
2018-12-11T15:56:10.469Z,2.23
2018-12-11T15:58:37.928Z,2.30
2018-12-11T16:03:39.346Z,3.20
2018-12-11T16:06:06.839Z,3.40
2018-12-11T16:08:34.342Z,3.57
2018-12-11T16:11:01.818Z,4.90
2018-12-11T16:13:29.252Z,6.13
2018-12-11T16:15:56.721Z,4.40
2018-12-11T16:18:24.194Z,3.23
2018-12-11T16:20:51.641Z,1.83
2018-12-11T16:23:19.110Z,1.90
2018-12-11T16:25:46.662Z,2.73
2018-12-11T16:28:14.150Z,2.60
2018-12-11T16:30:41.602Z,2.90
2018-12-11T16:33:09.053Z,2.87
2018-12-11T16:35:36.566Z,2.73
2018-12-11T16:38:04.038Z,3.93
2018-12-11T16:40:31.521Z,4.30
2018-12-11T16:42:58.965Z,4.30
2018-12-11T16:45:26.431Z,4.20
2018-12-11T16:47:53.882Z,3.20
2018-12-11T16:50:21.362Z,5.23
2018-12-11T16:52:48.909Z,3.83
2018-12-11T16:55:16.414Z,3.97
2018-12-11T16:57:43.891Z,3.10
2018-12-11T17:00:11.391Z,3.40
2018-12-11T17:02:38.853Z,3.10
2018-12-11T17:05:06.497Z,2.90
2018-12-11T17:07:33.971Z,3.80
2018-12-11T17:10:01.553Z,3.50
2018-12-11T17:12:29.263Z,3.63
2018-12-11T17:14:58.646Z,2.87
2018-12-11T17:17:26.357Z,2.77
2018-12-11T17:19:53.797Z,4.10
2018-12-11T17:22:21.334Z,3.60
2018-12-11T17:24:48.910Z,3.27
2018-12-11T17:27:16.399Z,3.97
2018-12-11T17:29:43.852Z,3.13
2018-12-11T17:32:11.315Z,2.73
2018-12-11T17:34:38.896Z,2.67
2018-12-11T17:37:07.413Z,3.77
2018-12-11T17:39:35.793Z,4.80
2018-12-11T17:42:03.523Z,4.77
2018-12-11T17:44:31.021Z,4.43
2018-12-11T17:46:58.502Z,3.97
2018-12-11T17:49:25.948Z,5.57
2018-12-11T17:51:53.422Z,4.60
2018-12-11T17:54:20.967Z,5.08
2018-12-11T17:56:48.519Z,4.00
2018-12-11T17:59:16.253Z,3.83
2018-12-11T18:01:45.053Z,3.47
2018-12-11T18:04:12.651Z,3.40
2018-12-11T18:06:40.142Z,6.33
2018-12-11T18:09:08.131Z,4.33
2018-12-11T18:11:35.607Z,5.00
2018-12-11T18:14:03.158Z,6.23
2018-12-11T18:16:30.614Z,12.10
2018-12-11T18:18:58.095Z,9.20
2018-12-11T18:21:25.550Z,7.80
2018-12-11T18:23:53.062Z,7.83
2018-12-11T18:26:20.514Z,7.03
2018-12-11T18:28:48.045Z,7.00
2018-12-11T18:31:15.519Z,7.10
2018-12-11T18:33:42.964Z,5.90
2018-12-11T18:36:10.435Z,6.80
2018-12-11T18:38:37.912Z,5.50
2018-12-11T18:41:05.365Z,6.03
2018-12-11T18:43:33.636Z,5.63
2018-12-11T18:46:01.449Z,4.90
2018-12-11T18:48:28.914Z,4.43
2018-12-11T18:50:56.417Z,4.63
2018-12-11T18:53:24.064Z,4.90
2018-12-11T18:55:51.514Z,4.93
2018-12-11T18:58:19.017Z,4.20
2018-12-11T19:00:46.614Z,4.03
2018-12-11T19:03:14.083Z,6.27
2018-12-11T19:05:41.526Z,6.40
2018-12-11T19:08:09.009Z,5.10
2018-12-11T19:10:36.514Z,4.53
2018-12-11T19:13:03.958Z,3.97
2018-12-11T19:15:33.795Z,4.13
2018-12-11T19:18:01.321Z,4.67
2018-12-11T19:20:28.818Z,7.37
2018-12-11T19:22:59.953Z,5.53
2018-12-11T19:25:27.419Z,4.87
2018-12-11T19:27:54.913Z,4.77
2018-12-11T19:30:22.531Z,4.70
2018-12-11T19:32:50.150Z,5.17
2018-12-11T19:35:17.745Z,5.07
2018-12-11T19:37:45.247Z,4.80
2018-12-11T19:40:12.771Z,4.67
2018-12-11T19:42:40.221Z,4.60
2018-12-11T19:45:08.291Z,4.73
2018-12-11T19:47:35.837Z,5.07
2018-12-11T19:50:05.477Z,6.30
2018-12-11T19:52:39.521Z,6.30
2018-12-11T19:55:02.678Z,6.20
2018-12-11T19:57:30.174Z,5.53
2018-12-11T19:59:57.613Z,6.03
2018-12-11T20:02:25.156Z,6.97
2018-12-11T20:04:52.691Z,5.37
2018-12-11T20:07:20.389Z,6.87
2018-12-11T20:12:42.583Z,6.57
2018-12-11T20:15:10.146Z,5.90
2018-12-11T20:17:37.631Z,5.80
2018-12-11T20:20:06.662Z,6.57
2018-12-11T20:22:34.993Z,6.73
2018-12-11T20:25:02.659Z,6.77
2018-12-11T20:27:30.170Z,6.03
2018-12-11T20:29:57.709Z,6.73
2018-12-11T20:32:25.449Z,6.83
2018-12-11T20:34:53.064Z,6.00
2018-12-11T20:37:20.582Z,7.43
2018-12-11T20:39:49.868Z,8.00
2018-12-11T20:42:18.242Z,6.40
2018-12-11T20:44:45.797Z,6.50
2018-12-11T20:47:13.453Z,6.47
2018-12-11T20:49:41.054Z,8.20
2018-12-11T20:52:08.515Z,6.00
2018-12-11T20:54:35.998Z,7.60
2018-12-11T20:57:03.464Z,6.57
2018-12-11T20:59:31.094Z,6.37
2018-12-11T21:01:58.568Z,6.23
2018-12-11T21:04:26.218Z,6.87
2018-12-11T21:06:53.677Z,6.00
2018-12-11T21:09:21.278Z,5.80
2018-12-11T21:11:48.805Z,6.03
2018-12-11T21:14:16.512Z,6.03
2018-12-11T21:16:44.132Z,5.73
2018-12-11T21:19:11.837Z,6.33
2018-12-11T21:21:39.616Z,6.87
2018-12-11T21:24:07.585Z,5.97
2018-12-11T21:26:35.051Z,5.77
2018-12-11T21:29:02.562Z,5.80
2018-12-11T21:31:30.322Z,7.43
2018-12-11T21:33:57.855Z,8.90
2018-12-11T21:36:25.377Z,9.23
2018-12-11T21:38:53.125Z,7.67
2018-12-11T21:41:21.606Z,5.80
2018-12-11T21:43:49.061Z,6.50
2018-12-11T21:46:16.547Z,8.90
2018-12-11T21:48:44.099Z,8.90
2018-12-11T21:51:11.574Z,7.53
2018-12-11T21:53:39.037Z,7.63
2018-12-11T21:56:06.587Z,7.13
2018-12-11T21:58:34.071Z,7.53
2018-12-11T22:01:01.513Z,7.00
2018-12-11T22:03:29.102Z,7.20
2018-12-11T22:05:56.618Z,7.40
2018-12-11T22:08:24.122Z,6.93
2018-12-11T22:10:51.606Z,6.60
2018-12-11T22:13:19.054Z,7.10
2018-12-11T22:15:46.522Z,6.73
2018-12-11T22:18:13.994Z,7.17
2018-12-11T22:20:41.470Z,7.30
2018-12-11T22:23:08.942Z,6.23
2018-12-11T22:25:36.423Z,6.23
2018-12-11T22:28:03.924Z,6.17
2018-12-11T22:30:31.455Z,6.60
2018-12-11T22:32:58.910Z,7.60
2018-12-11T22:35:26.399Z,7.57
2018-12-11T22:37:53.893Z,6.23
2018-12-11T22:40:21.348Z,7.73
2018-12-11T22:42:48.818Z,6.60
2018-12-11T22:45:16.261Z,6.90
2018-12-11T22:47:43.826Z,7.87
2018-12-11T22:50:11.334Z,6.63
2018-12-11T22:52:38.777Z,6.13
2018-12-11T22:55:06.345Z,7.77
2018-12-11T22:57:33.809Z,7.80
2018-12-11T23:00:01.254Z,7.47
2018-12-11T23:02:28.778Z,6.63
2018-12-11T23:04:56.252Z,7.10
2018-12-11T23:07:23.698Z,8.07
2018-12-11T23:09:51.273Z,7.70
2018-12-11T23:12:18.750Z,6.57
2018-12-11T23:14:46.213Z,8.50
2018-12-11T23:17:13.920Z,7.67
2018-12-11T23:19:41.381Z,7.30
2018-12-11T23:22:08.888Z,9.00
2018-12-11T23:24:36.398Z,6.93
2018-12-11T23:27:04.013Z,7.23
2018-12-11T23:29:31.468Z,7.33
2018-12-11T23:31:58.938Z,7.80
2018-12-11T23:34:26.431Z,7.23
2018-12-11T23:36:53.896Z,7.50
2018-12-11T23:39:21.345Z,7.37
2018-12-11T23:41:48.827Z,9.00
2018-12-11T23:44:16.297Z,8.40
2018-12-11T23:46:43.775Z,9.20
2018-12-11T23:49:11.261Z,8.37
2018-12-11T23:51:38.843Z,9.50
2018-12-11T23:54:06.296Z,8.50
2018-12-11T23:56:33.769Z,9.20
2018-12-11T23:59:01.221Z,8.10
